Time;durP1;ratioP1;P1;durP2;ratioP2;P2;SDS_P1;SDS_P2;PMS_P1;PMS_P2;Temp;Humidity;BMP_temperature;BMP_pressure;BME280_temperature;BME280_humidity;BME280_pressure;Samples;Min_cycle;Max_cycle;Signal;HPM_P1;HPM_P2
2023/10/22 00:02:43;;;;;;;1999.90;999.90;;;;;;;18.27;65.96;99573.50;10521766;28;20052;-66
2023/10/22 00:07:45;;;;;;;1999.90;999.90;;;;;;;18.12;65.53;99570.72;10538898;28;20063;-66
2023/10/22 00:12:48;;;;;;;1999.90;999.90;;;;;;;18.10;66.20;99572.69;10539544;28;20048;-67
2023/10/22 00:17:51;;;;;;;1999.90;999.90;;;;;;;18.40;65.68;99578.28;10547572;28;20051;-66
2023/10/22 00:22:53;;;;;;;1999.90;999.90;;;;;;;18.49;66.05;99577.28;10546609;28;20056;-66
2023/10/22 00:27:56;;;;;;;1999.90;999.90;;;;;;;18.14;67.04;99578.47;10512495;28;20051;-67
2023/10/22 00:32:58;;;;;;;1999.90;999.90;;;;;;;18.51;66.75;99587.72;10546816;28;20051;-68
2023/10/22 00:38:01;;;;;;;1999.90;999.90;;;;;;;18.27;67.16;99589.41;10546090;28;20052;-68
2023/10/22 00:43:06;;;;;;;1999.90;999.90;;;;;;;18.68;66.17;99594.63;10528187;28;20488;-67
2023/10/22 00:48:09;;;;;;;1999.90;999.90;;;;;;;18.28;67.44;99593.72;10546322;28;20048;-67
2023/10/22 00:53:16;;;;;;;1999.90;999.90;;;;;;;18.77;66.47;99597.25;10528115;28;20055;-67
2023/10/22 00:58:20;;;;;;;1999.90;999.90;;;;;;;18.15;67.42;99603.97;10527978;28;20048;-67
2023/10/22 01:03:22;;;;;;;1999.90;999.90;;;;;;;18.14;67.99;99608.47;10545753;28;20075;-67
2023/10/22 01:08:25;;;;;;;1999.90;999.90;;;;;;;18.19;68.80;99611.44;10544848;28;20062;-67
2023/10/22 01:13:29;;;;;;;1999.90;999.90;;;;;;;18.00;68.22;99615.25;10527269;28;20072;-67
2023/10/22 01:18:32;;;;;;;1999.90;999.90;;;;;;;18.09;68.01;99607.28;10526826;28;20135;-67
2023/10/22 01:23:37;;;;;;;1999.90;999.90;;;;;;;18.49;68.30;99619.69;10544093;28;20386;-67
2023/10/22 01:28:40;;;;;;;1999.90;999.90;;;;;;;18.48;68.63;99619.84;10526031;28;20048;-67
2023/10/22 01:33:43;;;;;;;1999.90;999.90;;;;;;;18.53;68.25;99623.66;10544422;28;20052;-67
2023/10/22 01:38:46;;;;;;;1999.90;999.90;;;;;;;18.43;67.84;99625.66;10526546;28;20055;-67
2023/10/22 01:43:48;;;;;;;1999.90;999.90;;;;;;;18.25;67.57;99639.06;10544147;28;20097;-67
2023/10/22 01:48:51;;;;;;;1999.90;999.90;;;;;;;18.23;68.39;99633.13;10525331;28;20389;-67
2023/10/22 01:53:53;;;;;;;1999.90;999.90;;;;;;;18.86;67.03;99638.69;10508553;28;20535;-67
2023/10/22 01:58:56;;;;;;;1999.90;999.90;;;;;;;18.33;68.21;99641.72;10543489;28;20052;-67
2023/10/22 02:03:58;;;;;;;1999.90;999.90;;;;;;;18.24;68.79;99657.78;10542610;28;20134;-67
2023/10/22 02:09:00;;;;;;;1999.90;999.90;;;;;;;18.34;68.15;99666.38;10542302;28;20058;-67
2023/10/22 02:14:03;;;;;;;1999.90;999.90;;;;;;;17.73;69.91;99677.22;10542763;28;20044;-67
2023/10/22 02:19:06;;;;;;;1999.90;999.90;;;;;;;17.85;69.49;99677.75;10542682;28;20054;-67
2023/10/22 02:24:08;;;;;;;1999.90;999.90;;;;;;;18.07;70.29;99689.59;10524171;28;20476;-67
2023/10/22 02:29:12;;;;;;;1999.90;999.90;;;;;;;17.92;70.64;99705.28;10541670;28;20407;-67
2023/10/22 02:34:14;;;;;;;1999.90;999.90;;;;;;;18.28;70.84;99707.63;10523471;28;20048;-67
2023/10/22 02:39:16;;;;;;;1999.90;999.90;;;;;;;17.82;74.11;99731.84;10541663;28;20048;-67
2023/10/22 02:44:19;;;;;;;1999.90;999.90;;;;;;;18.32;72.94;99732.78;10541711;28;20058;-67
2023/10/22 02:49:21;;;;;;;1999.90;999.90;;;;;;;18.22;74.52;99752.50;10541538;28;20048;-67
2023/10/22 02:54:24;;;;;;;1999.90;999.90;;;;;;;17.75;77.84;99765.25;10541269;28;20049;-67
2023/10/22 02:59:26;;;;;;;1999.90;999.90;;;;;;;18.27;72.73;99766.06;10540585;28;20056;-67
2023/10/22 03:04:28;;;;;;;1999.90;999.90;;;;;;;17.98;77.45;99776.09;10540118;28;20494;-66
2023/10/22 03:09:32;;;;;;;1999.90;999.90;;;;;;;18.12;74.57;99785.28;10540874;28;20127;-67
2023/10/22 03:14:34;;;;;;;1999.90;999.90;;;;;;;17.60;75.50;99791.50;10539939;28;20408;-67
2023/10/22 03:19:37;;;;;;;1999.90;999.90;;;;;;;17.59;78.14;99797.75;10506250;28;20051;-67
2023/10/22 03:24:42;;;;;;;1999.90;999.90;;;;;;;17.96;76.21;99804.56;10540423;28;20044;-67
2023/10/22 03:29:45;;;;;;;1999.90;999.90;;;;;;;18.02;76.32;99816.34;10540218;28;20048;-67
2023/10/22 03:34:47;;;;;;;1999.90;999.90;;;;;;;17.85;78.48;99814.59;10539399;28;20048;-67
2023/10/22 03:39:50;;;;;;;1999.90;999.90;;;;;;;17.97;79.00;99822.13;10540021;28;20052;-67
2023/10/22 03:44:52;;;;;;;1999.90;999.90;;;;;;;17.68;78.99;99829.56;10539885;28;20045;-67
2023/10/22 03:49:54;;;;;;;1999.90;999.90;;;;;;;17.53;80.20;99853.97;10509192;28;20117;-67
2023/10/22 03:54:57;;;;;;;1999.90;999.90;;;;;;;17.59;79.15;99863.13;10548322;28;20130;-67
2023/10/22 03:59:59;;;;;;;1999.90;999.90;;;;;;;17.95;79.03;99863.81;10547607;28;20516;-67
2023/10/22 04:05:02;;;;;;;1999.90;999.90;;;;;;;17.91;77.04;99883.66;10547785;28;20055;-67
2023/10/22 04:10:09;;;;;;;1999.90;999.90;;;;;;;17.56;79.20;99903.13;10529959;28;20052;-67
2023/10/22 04:15:12;;;;;;;1999.90;999.90;;;;;;;17.31;79.71;99921.44;10530543;28;20044;-67
2023/10/22 04:20:15;;;;;;;1999.90;999.90;;;;;;;17.20;79.89;99934.94;10528829;28;20075;-67
2023/10/22 04:25:17;;;;;;;1999.90;999.90;;;;;;;17.33;78.32;99948.59;10546792;28;20048;-67
2023/10/22 04:30:20;;;;;;;1999.90;999.90;;;;;;;17.24;79.81;99955.63;10546425;28;20070;-68
2023/10/22 04:35:23;;;;;;;1999.90;999.90;;;;;;;17.07;79.42;99957.28;10528235;28;20522;-67
2023/10/22 04:40:26;;;;;;;1999.90;999.90;;;;;;;17.22;79.23;99970.81;10546666;28;20052;-67
2023/10/22 04:45:28;;;;;;;1999.90;999.90;;;;;;;17.48;75.96;99985.09;10545847;28;20404;-67
2023/10/22 04:50:31;;;;;;;1999.90;999.90;;;;;;;17.77;74.56;99996.25;10546265;28;20123;-67
2023/10/22 04:55:33;;;;;;;1999.90;999.90;;;;;;;17.66;75.31;100014.19;10545962;28;20044;-67
2023/10/22 05:00:36;;;;;;;1999.90;999.90;;;;;;;17.97;74.58;100022.53;10545738;28;20123;-67
2023/10/22 05:05:38;;;;;;;1999.90;999.90;;;;;;;18.05;74.43;100021.78;10544802;28;20560;-67
2023/10/22 05:10:41;;;;;;;1999.90;999.90;;;;;;;17.65;76.64;100029.22;10544822;28;20069;-67
2023/10/22 05:15:51;;;;;;;1999.90;999.90;;;;;;;17.58;76.14;100054.66;10544474;28;20051;-67
2023/10/22 05:21:00;;;;;;;1999.90;999.90;;;;;;;17.01;76.37;100060.19;10544499;28;20093;-67
2023/10/22 05:26:11;;;;;;;1999.90;999.90;;;;;;;17.56;75.00;100062.72;10544257;28;20067;-67
2023/10/22 05:31:15;;;;;;;1999.90;999.90;;;;;;;17.25;75.04;100076.31;10526860;28;20075;-67
2023/10/22 05:36:19;;;;;;;1999.90;999.90;;;;;;;17.63;74.28;100089.44;10509858;28;20055;-67
2023/10/22 05:41:26;;;;;;;1999.90;999.90;;;;;;;18.21;71.73;100104.03;10509163;28;20477;-67
2023/10/22 05:46:33;;;;;;;1999.90;999.90;;;;;;;17.73;73.56;100106.06;10526229;28;20047;-67
2023/10/22 05:51:36;;;;;;;1999.90;999.90;;;;;;;18.31;70.66;100115.34;10525328;28;20058;-67
2023/10/22 05:56:38;;;;;;;1999.90;999.90;;;;;;;17.80;70.84;100125.69;10543575;28;20048;-67
2023/10/22 06:01:41;;;;;;;1999.90;999.90;;;;;;;17.57;72.18;100137.69;10525652;28;20048;-67
2023/10/22 06:06:44;;;;;;;1999.90;999.90;;;;;;;17.38;73.07;100143.91;10542760;28;20059;-67
2023/10/22 06:11:46;;;;;;;1999.90;999.90;;;;;;;17.07;73.94;100168.84;10542424;28;20123;-67
2023/10/22 06:16:48;;;;;;;1999.90;999.90;;;;;;;16.87;76.02;100172.53;10542745;28;20123;-67
2023/10/22 06:21:51;;;;;;;1999.90;999.90;;;;;;;17.24;72.34;100172.53;10541943;28;20510;-67
2023/10/22 06:26:53;;;;;;;1999.90;999.90;;;;;;;17.37;71.60;100177.50;10542442;28;20040;-67
2023/10/22 06:31:56;;;;;;;1999.90;999.90;;;;;;;17.45;70.98;100190.81;10541563;28;20075;-67
2023/10/22 06:36:58;;;;;;;1999.90;999.90;;;;;;;16.79;72.53;100196.19;10541284;28;20111;-68
2023/10/22 06:42:01;;;;;;;1999.90;999.90;;;;;;;16.96;72.39;100203.41;10541818;28;20083;-68
2023/10/22 06:47:04;;;;;;;1999.90;999.90;;;;;;;16.77;73.90;100220.13;10541689;28;20073;-67
2023/10/22 06:52:06;;;;;;;1999.90;999.90;;;;;;;16.84;71.92;100223.03;10541426;28;20052;-67
2023/10/22 06:57:08;;;;;;;1999.90;999.90;;;;;;;17.85;69.09;100240.88;10540599;28;20449;-68
2023/10/22 07:02:11;;;;;;;1999.90;999.90;;;;;;;16.99;71.90;100256.00;10522521;28;20443;-67
2023/10/22 07:07:13;;;;;;;1999.90;999.90;;;;;;;17.29;71.65;100251.47;10540584;28;20043;-67
2023/10/22 07:12:16;;;;;;;1999.90;999.90;;;;;;;17.79;69.99;100266.16;10540734;28;20052;-67
2023/10/22 07:17:18;;;;;;;1999.90;999.90;;;;;;;17.85;67.91;100278.78;10522601;28;20044;-67
2023/10/22 07:22:21;;;;;;;1999.90;999.90;;;;;;;17.63;68.32;100280.88;10539569;28;20062;-67
2023/10/22 07:27:23;;;;;;;1999.90;999.90;;;;;;;17.85;69.73;100281.44;10522399;28;20127;-67
2023/10/22 07:32:26;;;;;;;1999.90;999.90;;;;;;;18.28;69.00;100290.53;10540213;28;20048;-67
2023/10/22 07:37:28;;;;;;;1999.90;999.90;;;;;;;18.08;69.11;100311.03;10539356;28;20481;-67
2023/10/22 07:42:31;;;;;;;1999.90;999.90;;;;;;;18.19;69.41;100320.59;10539978;28;20098;-67
2023/10/22 07:47:35;;;;;;;1999.90;999.90;;;;;;;19.01;67.17;100318.69;10539283;28;20071;-68
2023/10/22 07:52:38;;;;;;;1999.90;999.90;;;;;;;19.26;65.98;100322.34;10539799;28;20052;-68
2023/10/22 07:57:40;;;;;;;1999.90;999.90;;;;;;;19.29;64.39;100331.84;10539618;28;20098;-67
2023/10/22 08:02:42;;;;;;;1999.90;999.90;;;;;;;19.27;65.23;100331.97;10521723;28;20050;-64
2023/10/22 08:07:45;;;;;;;1999.90;999.90;;;;;;;19.69;64.42;100335.72;10538790;28;20075;-64
2023/10/22 08:12:47;;;;;;;1999.90;999.90;;;;;;;20.32;61.12;100352.22;10521692;28;20048;-65
2023/10/22 08:17:50;;;;;;;1999.90;999.90;;;;;;;19.79;61.12;100343.59;10521390;28;20048;-65
2023/10/22 08:22:52;;;;;;;1999.90;999.90;;;;;;;21.04;61.78;100354.34;10428216;22;20230;-63
2023/10/22 08:27:55;;;;;;;1999.90;999.90;;;;;;;20.29;60.17;100360.53;10367009;28;20149;-63
2023/10/22 08:32:58;;;;;;;1999.90;999.90;;;;;;;20.47;60.34;100366.56;10366976;28;20413;-63
2023/10/22 08:38:00;;;;;;;1999.90;999.90;;;;;;;20.51;61.29;100375.03;10373492;28;20103;-63
2023/10/22 08:43:06;;;;;;;1999.90;999.90;;;;;;;21.20;59.15;100372.97;10374317;28;20054;-64
2023/10/22 08:48:08;;;;;;;1999.90;999.90;;;;;;;20.46;60.70;100382.66;10356886;28;20050;-63
2023/10/22 08:53:15;;;;;;;1999.90;999.90;;;;;;;20.53;61.47;100392.50;10340063;28;20050;-63
2023/10/22 08:58:19;;;;;;;1999.90;999.90;;;;;;;20.91;60.94;100397.41;10356391;28;20077;-63
2023/10/22 09:03:25;;;;;;;1999.90;999.90;;;;;;;21.33;61.98;100407.03;10373617;28;20077;-63
2023/10/22 09:08:46;;;;;;;1999.90;999.90;;;;;;;20.63;63.50;100412.81;10372784;28;20483;-63
2023/10/22 09:13:48;;;;;;;1999.90;999.90;;;;;;;20.70;62.11;100427.97;10373423;28;20103;-63
2023/10/22 09:18:51;;;;;;;1999.90;999.90;;;;;;;20.69;63.54;100438.78;10372518;28;20042;-63
2023/10/22 09:24:04;;;;;;;1999.90;999.90;;;;;;;21.37;59.23;100429.69;10354947;28;20085;-63
2023/10/22 09:29:07;;;;;;;1999.90;999.90;;;;;;;20.96;62.17;100441.16;10355014;28;20050;-63
2023/10/22 09:34:25;;;;;;;1999.90;999.90;;;;;;;22.47;61.25;100437.09;10372632;28;20050;-64
2023/10/22 09:39:42;;;;;;;1999.90;999.90;;;;;;;23.45;55.71;100435.59;10371905;28;20080;-64
2023/10/22 09:44:45;;;;;;;1999.90;999.90;;;;;;;21.84;60.13;100444.97;10354968;28;20134;-63
2023/10/22 09:50:01;;;;;;;1999.90;999.90;;;;;;;22.61;58.66;100454.19;10370845;28;20567;-63
2023/10/22 09:55:05;;;;;;;1999.90;999.90;;;;;;;22.77;55.75;100458.63;10354027;28;20050;-63
2023/10/22 10:00:12;;;;;;;1999.90;999.90;;;;;;;22.38;55.62;100462.97;10353948;28;20494;-63
2023/10/22 10:05:15;;;;;;;1999.90;999.90;;;;;;;24.77;56.31;100459.00;10338309;28;20050;-68
2023/10/22 10:10:18;;;;;;;1999.90;999.90;;;;;;;22.70;54.51;100466.50;10354271;28;20137;-68
2023/10/22 10:15:34;;;;;;;1999.90;999.90;;;;;;;22.80;53.43;100469.75;10354077;28;20052;-67
2023/10/22 10:20:39;;;;;;;1999.90;999.90;;;;;;;21.38;55.53;100489.09;10353905;28;20115;-67
2023/10/22 10:25:42;;;;;;;1999.90;999.90;;;;;;;21.11;58.12;100496.41;10354113;28;20042;-68
2023/10/22 10:30:45;;;;;;;1999.90;999.90;;;;;;;21.09;57.72;100504.53;10353614;28;20050;-67
2023/10/22 10:35:48;;;;;;;1999.90;999.90;;;;;;;21.55;58.26;100509.44;10370668;28;20129;-68
2023/10/22 10:40:54;;;;;;;1999.90;999.90;;;;;;;21.33;59.58;100518.88;10353527;28;20139;-67
2023/10/22 10:46:25;;;;;;;1999.90;999.90;;;;;;;21.31;58.70;100523.53;10370456;28;20046;-68
2023/10/22 10:51:28;;;;;;;1999.90;999.90;;;;;;;20.86;60.30;100522.13;10352439;28;20049;-68
2023/10/22 10:57:00;;;;;;;1999.90;999.90;;;;;;;21.63;59.03;100524.59;10352526;28;20078;-68
2023/10/22 11:02:08;;;;;;;1999.90;999.90;;;;;;;21.38;59.32;100526.38;10336301;28;20049;-68
2023/10/22 11:07:11;;;;;;;1999.90;999.90;;;;;;;21.91;58.04;100521.59;10336063;28;20057;-67
2023/10/22 11:12:28;;;;;;;1999.90;999.90;;;;;;;23.04;56.62;100521.34;10354401;28;20133;-67
2023/10/22 11:17:31;;;;;;;1999.90;999.90;;;;;;;23.32;55.61;100528.88;10352440;28;20042;-64
2023/10/22 11:22:37;;;;;;;1999.90;999.90;;;;;;;22.70;54.95;100527.03;10368724;28;20060;-64
2023/10/22 11:27:40;;;;;;;1999.90;999.90;;;;;;;21.26;58.43;100542.66;10369215;28;20054;-64
2023/10/22 11:32:48;;;;;;;1999.90;999.90;;;;;;;21.91;56.99;100540.25;10368367;28;20117;-64
2023/10/22 11:37:52;;;;;;;1999.90;999.90;;;;;;;22.32;56.21;100540.19;10368836;28;20050;-64
2023/10/22 11:43:05;;;;;;;1999.90;999.90;;;;;;;21.87;57.85;100555.72;10368824;28;20053;-64
2023/10/22 11:48:12;;;;;;;1999.90;999.90;;;;;;;21.62;58.21;100555.72;10368077;28;20478;-64
2023/10/22 11:53:15;;;;;;;1999.90;999.90;;;;;;;21.73;56.15;100557.22;10368105;28;20451;-64
2023/10/22 11:58:25;;;;;;;1999.90;999.90;;;;;;;21.82;57.62;100561.56;10368362;28;20046;-64
2023/10/22 12:03:28;;;;;;;1999.90;999.90;;;;;;;21.40;58.12;100577.63;10351491;28;20058;-64
2023/10/22 12:08:31;;;;;;;1999.90;999.90;;;;;;;21.31;59.14;100571.47;10351168;28;20088;-64
2023/10/22 12:13:33;;;;;;;1999.90;999.90;;;;;;;20.49;60.40;100581.78;10374692;28;20160;-64
2023/10/22 12:18:35;;;;;;;1999.90;999.90;;;;;;;20.86;57.39;100588.63;10374422;28;20397;-64
2023/10/22 12:23:38;;;;;;;1999.90;999.90;;;;;;;21.19;56.61;100588.75;10374363;28;20068;-64
2023/10/22 12:28:51;;;;;;;1999.90;999.90;;;;;;;20.55;56.50;100583.81;10374878;28;20099;-64
2023/10/22 12:33:53;;;;;;;1999.90;999.90;;;;;;;20.91;58.60;100589.00;10357429;28;20050;-64
2023/10/22 12:38:56;;;;;;;1999.90;999.90;;;;;;;20.52;56.93;100600.09;10374473;28;20065;-64
2023/10/22 12:43:58;;;;;;;1999.90;999.90;;;;;;;20.35;58.03;100621.25;10373739;28;20082;-64
2023/10/22 12:49:00;;;;;;;1999.90;999.90;;;;;;;20.44;57.16;100614.16;10356172;28;20497;-64
2023/10/22 12:54:05;;;;;;;1999.90;999.90;;;;;;;20.48;56.83;100623.50;10373492;28;20104;-64
2023/10/22 12:59:08;;;;;;;1999.90;999.90;;;;;;;21.27;55.83;100623.41;10373824;28;20079;-64
2023/10/22 13:04:11;;;;;;;1999.90;999.90;;;;;;;20.42;56.10;100629.44;10373090;28;20053;-64
2023/10/22 13:09:14;;;;;;;1999.90;999.90;;;;;;;21.21;55.23;100634.69;10355726;28;20528;-64
2023/10/22 13:14:21;;;;;;;1999.90;999.90;;;;;;;21.52;55.97;100640.28;10373452;28;20049;-64
2023/10/22 13:19:23;;;;;;;1999.90;999.90;;;;;;;20.84;55.93;100638.53;10339638;28;20052;-64
2023/10/22 13:24:26;;;;;;;1999.90;999.90;;;;;;;20.31;55.27;100637.66;10371165;28;20054;-64
2023/10/22 13:29:28;;;;;;;1999.90;999.90;;;;;;;21.40;55.89;100647.72;10372886;28;20057;-64
2023/10/22 13:34:31;;;;;;;1999.90;999.90;;;;;;;20.65;59.10;100655.56;10372738;28;20050;-63
2023/10/22 13:39:33;;;;;;;1999.90;999.90;;;;;;;20.63;57.54;100654.84;10371879;28;20479;-63
2023/10/22 13:44:36;;;;;;;1999.90;999.90;;;;;;;20.46;58.23;100662.72;10372386;28;20060;-64
2023/10/22 13:49:40;;;;;;;1999.90;999.90;;;;;;;19.97;56.95;100660.53;10355127;28;20132;-63
2023/10/22 13:54:43;;;;;;;1999.90;999.90;;;;;;;19.91;59.20;100665.59;10354457;28;20494;-62
2023/10/22 13:59:45;;;;;;;1999.90;999.90;;;;;;;20.70;56.53;100671.88;10371352;28;20052;-62
2023/10/22 14:04:47;;;;;;;1999.90;999.90;;;;;;;21.65;53.24;100674.44;10371873;28;20083;-63
2023/10/22 14:09:50;;;;;;;1999.90;999.90;;;;;;;20.14;56.90;100684.56;10371690;28;20057;-63
2023/10/22 14:14:52;;;;;;;1999.90;999.90;;;;;;;20.15;57.90;100687.06;10371502;28;20151;-64
2023/10/22 14:19:55;;;;;;;1999.90;999.90;;;;;;;20.35;55.25;100689.56;10371017;28;20057;-63
2023/10/22 14:24:58;;;;;;;1999.90;999.90;;;;;;;20.71;54.04;100687.69;10370612;28;20518;-63
2023/10/22 14:30:00;;;;;;;1999.90;999.90;;;;;;;21.19;54.51;100692.59;10353672;28;20049;-63
2023/10/22 14:35:03;;;;;;;1999.90;999.90;;;;;;;20.89;55.88;100700.09;10370243;28;20088;-63
2023/10/22 14:40:08;;;;;;;1999.90;999.90;;;;;;;21.19;55.44;100698.72;10370067;28;20505;-63
2023/10/22 14:45:10;;;;;;;1999.90;999.90;;;;;;;20.85;56.37;100698.75;10370599;28;20053;-63
2023/10/22 14:50:13;;;;;;;1999.90;999.90;;;;;;;20.16;58.96;100706.53;10370391;28;20050;-63
2023/10/22 14:55:16;;;;;;;1999.90;999.90;;;;;;;20.86;55.98;100711.03;10353092;28;20046;-63
2023/10/22 15:00:18;;;;;;;1999.90;999.90;;;;;;;20.08;59.08;100706.44;10369376;28;20122;-63
2023/10/22 15:05:24;;;;;;;1999.90;999.90;;;;;;;20.71;56.88;100708.09;10370100;28;20054;-63
2023/10/22 15:10:28;;;;;;;1999.90;999.90;;;;;;;20.60;56.40;100715.31;10369843;28;20057;-63
2023/10/22 15:15:39;;;;;;;1999.90;999.90;;;;;;;21.17;56.89;100718.53;10368910;28;20462;-63
2023/10/22 15:20:44;;;;;;;1999.90;999.90;;;;;;;20.66;58.46;100715.72;10369153;28;20062;-63
2023/10/22 15:25:48;;;;;;;1999.90;999.90;;;;;;;20.97;58.47;100727.56;10369313;28;20125;-63
2023/10/22 15:30:50;;;;;;;1999.90;999.90;;;;;;;20.94;60.17;100730.53;10368678;28;20056;-63
2023/10/22 15:35:57;;;;;;;1999.90;999.90;;;;;;;21.11;58.41;100730.63;10368973;28;20077;-63
2023/10/22 15:41:00;;;;;;;1999.90;999.90;;;;;;;20.36;60.36;100739.91;10368346;28;20452;-63
2023/10/22 15:46:03;;;;;;;1999.90;999.90;;;;;;;19.54;64.06;100752.34;10367111;28;20527;-63
2023/10/22 15:51:05;;;;;;;1999.90;999.90;;;;;;;19.72;63.23;100751.53;10368668;28;20053;-63
2023/10/22 15:56:08;;;;;;;1999.90;999.90;;;;;;;19.19;65.99;100761.00;10368390;28;20057;-63
2023/10/22 16:01:15;;;;;;;1999.90;999.90;;;;;;;19.12;66.11;100758.09;10368442;28;20061;-63
2023/10/22 16:06:18;;;;;;;1999.90;999.90;;;;;;;19.00;66.10;100768.03;10368373;28;20050;-63
2023/10/22 16:11:21;;;;;;;1999.90;999.90;;;;;;;18.85;67.34;100772.13;10368199;28;20052;-63
2023/10/22 16:16:23;;;;;;;1999.90;999.90;;;;;;;18.76;67.19;100781.72;10350682;28;20050;-63
2023/10/22 16:21:26;;;;;;;1999.90;999.90;;;;;;;18.26;68.68;100787.22;10367145;28;20498;-63
2023/10/22 16:26:28;;;;;;;1999.90;999.90;;;;;;;18.32;67.77;100795.41;10367805;28;20046;-63
2023/10/22 16:31:31;;;;;;;1999.90;999.90;;;;;;;17.90;68.48;100797.44;10367666;28;20080;-63
2023/10/22 16:36:33;;;;;;;1999.90;999.90;;;;;;;17.98;68.46;100814.34;10366915;28;20437;-63
2023/10/22 16:41:36;;;;;;;1999.90;999.90;;;;;;;17.93;67.84;100805.13;10367438;28;20078;-63
2023/10/22 16:46:38;;;;;;;1999.90;999.90;;;;;;;17.77;68.86;100810.88;10366900;28;20486;-63
2023/10/22 16:51:41;;;;;;;1999.90;999.90;;;;;;;18.00;67.63;100819.50;10366555;28;20384;-63
2023/10/22 16:56:43;;;;;;;1999.90;999.90;;;;;;;17.75;68.00;100821.66;10370165;28;20099;-63
2023/10/22 17:01:45;;;;;;;1999.90;999.90;;;;;;;17.79;68.06;100830.97;10339663;28;20437;-63
2023/10/22 17:06:48;;;;;;;1999.90;999.90;;;;;;;17.41;69.55;100845.72;10373594;28;20130;-63
2023/10/22 17:11:50;;;;;;;1999.90;999.90;;;;;;;17.53;68.95;100846.47;10372881;28;20110;-63
2023/10/22 17:16:53;;;;;;;1999.90;999.90;;;;;;;17.31;70.18;100855.41;10355324;28;20380;-63
2023/10/22 17:21:55;;;;;;;1999.90;999.90;;;;;;;17.76;68.78;100857.72;10372440;28;20498;-63
2023/10/22 17:26:59;;;;;;;1999.90;999.90;;;;;;;17.54;70.43;100858.75;10373045;28;20056;-63
2023/10/22 17:32:01;;;;;;;1999.90;999.90;;;;;;;17.95;69.36;100870.22;10355770;28;20058;-63
2023/10/22 17:37:04;;;;;;;1999.90;999.90;;;;;;;18.06;70.07;100874.59;10372706;28;20042;-63
2023/10/22 17:42:07;;;;;;;1999.90;999.90;;;;;;;17.91;69.60;100882.06;10372603;28;20084;-63
2023/10/22 17:47:09;;;;;;;1999.90;999.90;;;;;;;17.90;69.17;100892.78;10371830;28;20072;-63
2023/10/22 17:52:12;;;;;;;1999.90;999.90;;;;;;;17.96;70.05;100894.91;10372255;28;20046;-63
2023/10/22 17:57:15;;;;;;;1999.90;999.90;;;;;;;17.92;69.41;100907.59;10371473;28;20050;-63
2023/10/22 18:02:18;;;;;;;1999.90;999.90;;;;;;;17.60;70.97;100916.47;10354902;28;20177;-63
2023/10/22 18:07:20;;;;;;;1999.90;999.90;;;;;;;17.11;72.88;100910.00;10353541;28;20050;-63
2023/10/22 18:12:23;;;;;;;1999.90;999.90;;;;;;;17.17;73.79;100914.78;10354427;28;20049;-63
2023/10/22 18:17:26;;;;;;;1999.90;999.90;;;;;;;17.31;72.24;100924.22;10371316;28;20054;-63
2023/10/22 18:22:28;;;;;;;1999.90;999.90;;;;;;;17.55;70.94;100931.03;10370549;28;20066;-63
2023/10/22 18:27:30;;;;;;;1999.90;999.90;;;;;;;17.27;72.49;100930.75;10370558;28;20550;-63
2023/10/22 18:32:33;;;;;;;1999.90;999.90;;;;;;;17.60;71.76;100935.00;10370392;28;20415;-63
2023/10/22 18:37:35;;;;;;;1999.90;999.90;;;;;;;17.50;72.20;100947.34;10370772;28;20046;-63
2023/10/22 18:42:37;;;;;;;1999.90;999.90;;;;;;;17.71;72.43;100951.78;10352679;28;20410;-63
2023/10/22 18:47:40;;;;;;;1999.90;999.90;;;;;;;17.70;72.58;100952.75;10369899;28;20410;-63
2023/10/22 18:52:42;;;;;;;1999.90;999.90;;;;;;;17.68;72.27;100947.56;10370316;28;20107;-63
2023/10/22 18:57:45;;;;;;;1999.90;999.90;;;;;;;17.88;72.48;100951.19;10352273;28;20137;-63
2023/10/22 19:02:47;;;;;;;1999.90;999.90;;;;;;;18.18;70.89;100960.94;10352135;28;20057;-63
2023/10/22 19:07:50;;;;;;;1999.90;999.90;;;;;;;18.08;72.11;100965.38;10369936;28;20049;-63
2023/10/22 19:12:54;;;;;;;1999.90;999.90;;;;;;;18.17;72.14;100974.31;10369770;28;20053;-63
2023/10/22 19:17:57;;;;;;;1999.90;999.90;;;;;;;18.36;71.58;100981.53;10369464;28;20049;-63
2023/10/22 19:22:59;;;;;;;1999.90;999.90;;;;;;;18.56;71.09;100991.22;10368885;28;20057;-63
2023/10/22 19:28:02;;;;;;;1999.90;999.90;;;;;;;18.45;71.35;100999.28;10351867;28;20486;-63
2023/10/22 19:33:05;;;;;;;1999.90;999.90;;;;;;;18.55;71.12;101002.78;10351891;28;20081;-63
2023/10/22 19:38:08;;;;;;;1999.90;999.90;;;;;;;18.37;72.68;101005.25;10368348;28;20447;-63
2023/10/22 19:43:10;;;;;;;1999.90;999.90;;;;;;;18.53;72.51;101010.03;10368278;28;20409;-63
2023/10/22 19:48:12;;;;;;;1999.90;999.90;;;;;;;18.01;74.31;101020.69;10368072;28;20050;-63
2023/10/22 19:53:15;;;;;;;1999.90;999.90;;;;;;;18.64;70.90;101019.69;10368023;28;20460;-65
2023/10/22 19:58:17;;;;;;;1999.90;999.90;;;;;;;18.77;70.50;101031.88;10350605;28;20046;-63
2023/10/22 20:03:20;;;;;;;1999.90;999.90;;;;;;;18.63;70.41;101039.25;10334360;28;20046;-63
2023/10/22 20:08:22;;;;;;;1999.90;999.90;;;;;;;18.63;70.76;101039.25;10350360;28;20478;-63
2023/10/22 20:13:25;;;;;;;1999.90;999.90;;;;;;;18.86;69.87;101039.03;10368160;28;20129;-63
2023/10/22 20:18:27;;;;;;;1999.90;999.90;;;;;;;18.79;69.52;101037.88;10350633;28;20056;-63
2023/10/22 20:23:30;;;;;;;1999.90;999.90;;;;;;;18.89;68.91;101044.91;10367145;28;20062;-63
2023/10/22 20:28:40;;;;;;;1999.90;999.90;;;;;;;18.45;71.06;101046.97;10367753;28;20056;-63
2023/10/22 20:33:44;;;;;;;1999.90;999.90;;;;;;;18.57;70.53;101051.22;10356037;28;20513;-63
2023/10/22 20:38:47;;;;;;;1999.90;999.90;;;;;;;18.16;70.34;101052.16;10538005;23;20044;-70
2023/10/22 20:43:50;;;;;;;1999.90;999.90;;;;;;;17.45;72.84;101058.06;10546263;28;20412;-70
2023/10/22 20:48:54;;;;;;;1999.90;999.90;;;;;;;17.82;70.30;101063.78;10528948;28;20044;-69
2023/10/22 20:53:56;;;;;;;1999.90;999.90;;;;;;;17.63;71.42;101066.25;10528558;28;20051;-69
2023/10/22 20:58:59;;;;;;;1999.90;999.90;;;;;;;17.44;70.89;101064.31;10546170;28;20055;-70
2023/10/22 21:04:01;;;;;;;1999.90;999.90;;;;;;;17.82;71.06;101062.94;10545404;28;20492;-70
2023/10/22 21:09:04;;;;;;;1999.90;999.90;;;;;;;17.64;71.86;101066.13;10527334;28;20066;-70
2023/10/22 21:14:06;;;;;;;1999.90;999.90;;;;;;;17.58;73.01;101060.50;10545638;28;20075;-69
2023/10/22 21:19:09;;;;;;;1999.90;999.90;;;;;;;17.57;73.85;101069.44;10544741;28;20382;-69
2023/10/22 21:24:11;;;;;;;1999.90;999.90;;;;;;;18.12;70.31;101062.19;10544682;28;20555;-69
2023/10/22 21:29:13;;;;;;;1999.90;999.90;;;;;;;17.85;70.73;101062.66;10545067;28;20048;-70
2023/10/22 21:34:16;;;;;;;1999.90;999.90;;;;;;;17.43;73.74;101067.91;10544150;28;20066;-69
2023/10/22 21:39:18;;;;;;;1999.90;999.90;;;;;;;17.74;70.39;101075.97;10543959;28;20062;-70
2023/10/22 21:44:21;;;;;;;1999.90;999.90;;;;;;;17.72;71.23;101081.41;10543254;28;20054;-70
2023/10/22 21:49:23;;;;;;;1999.90;999.90;;;;;;;17.68;72.61;101081.78;10543621;28;20408;-70
2023/10/22 21:54:26;;;;;;;1999.90;999.90;;;;;;;17.74;71.24;101090.03;10543405;28;20405;-69
2023/10/22 21:59:28;;;;;;;1999.90;999.90;;;;;;;17.24;73.41;101092.38;10543752;28;20093;-69
2023/10/22 22:04:30;;;;;;;1999.90;999.90;;;;;;;17.75;72.09;101094.38;10525634;28;20055;-69